Time;durP1;ratioP1;P1;durP2;ratioP2;P2;SDS_P1;SDS_P2;PMS_P1;PMS_P2;Temp;Humidity;BMP_temperature;BMP_pressure;BME280_temperature;BME280_humidity;BME280_pressure;Samples;Min_cycle;Max_cycle;Signal;HPM_P1;HPM_P2
2021/05/07 00:00:58;;;;;;;5.05;2.05;;;;;;;6.98;68.39;98480.34;4991797;28;20052;-74
2021/05/07 00:03:25;;;;;;;4.83;1.90;;;;;;;7.00;68.50;98492.56;4995710;28;20050;-74
2021/05/07 00:05:55;;;;;;;5.82;2.00;;;;;;;7.04;68.52;98498.25;4999547;28;20158;-77
2021/05/07 00:08:24;;;;;;;8.38;1.95;;;;;;;6.98;68.81;98494.78;5001021;28;20069;-76
2021/05/07 00:10:50;;;;;;;7.55;1.80;;;;;;;6.98;69.10;98499.38;4969139;28;20050;-74
2021/05/07 00:13:17;;;;;;;6.18;2.00;;;;;;;6.94;68.75;98488.25;4983093;28;20124;-75
2021/05/07 00:15:43;;;;;;;4.90;2.13;;;;;;;6.94;69.17;98494.50;4997858;28;20046;-76
2021/05/07 00:18:09;;;;;;;14.85;2.20;;;;;;;6.99;69.12;98503.72;5006820;28;20506;-75
2021/05/07 00:20:35;;;;;;;5.45;1.80;;;;;;;6.91;69.21;98496.97;5002371;28;20104;-74
2021/05/07 00:23:02;;;;;;;4.28;1.73;;;;;;;6.90;69.28;98498.06;4998430;28;20502;-75
2021/05/07 00:25:29;;;;;;;5.80;2.03;;;;;;;6.89;69.30;98497.28;4998181;28;20133;-75
2021/05/07 00:27:59;;;;;;;5.60;2.00;;;;;;;6.83;69.40;98501.09;5001190;28;20069;-74
2021/05/07 00:30:25;;;;;;;6.13;1.98;;;;;;;6.78;69.59;98495.72;4984317;28;20065;-75
2021/05/07 00:32:52;;;;;;;5.18;2.03;;;;;;;6.74;69.71;98497.38;5000783;28;20042;-75
2021/05/07 00:35:18;;;;;;;4.90;2.00;;;;;;;6.70;69.99;98499.84;5001509;28;20133;-74
2021/05/07 00:37:44;;;;;;;5.60;1.88;;;;;;;6.73;69.82;98499.28;5001627;28;20129;-74
2021/05/07 00:40:12;;;;;;;9.32;2.08;;;;;;;6.68;69.51;98496.59;4995762;28;20414;-74
2021/05/07 00:42:53;;;;;;;4.80;1.98;;;;;;;6.70;69.47;98499.00;5003152;28;20050;-74
2021/05/07 00:45:21;;;;;;;4.83;1.87;;;;;;;6.71;69.45;98500.63;4998114;28;20058;-73
2021/05/07 00:47:50;;;;;;;5.80;2.00;;;;;;;6.79;69.39;98498.16;4994397;28;20152;-75
2021/05/07 00:50:17;;;;;;;3.92;1.80;;;;;;;6.70;69.36;98507.97;5006641;28;20056;-74
2021/05/07 00:52:44;;;;;;;8.27;2.00;;;;;;;6.71;69.17;98492.47;4999033;28;20104;-73
2021/05/07 00:55:12;;;;;;;8.00;1.88;;;;;;;6.57;69.51;98506.72;5000315;28;20070;-73
2021/05/07 00:57:39;;;;;;;8.55;2.00;;;;;;;6.41;69.92;98508.69;4998655;28;20474;-73
2021/05/07 01:00:08;;;;;;;4.20;1.70;;;;;;;6.57;69.52;98514.03;5005753;28;20457;-73
2021/05/07 01:02:35;;;;;;;3.70;1.58;;;;;;;6.53;69.32;98513.78;4999226;28;20089;-74
2021/05/07 01:05:03;;;;;;;7.10;2.00;;;;;;;6.40;69.44;98507.06;5006537;28;20124;-74
2021/05/07 01:07:29;;;;;;;6.22;1.98;;;;;;;6.46;69.16;98497.78;5007339;28;20137;-74
2021/05/07 01:09:56;;;;;;;6.40;2.00;;;;;;;6.59;69.24;98506.41;4987849;28;20128;-73
2021/05/07 01:12:23;;;;;;;7.03;2.00;;;;;;;6.69;68.74;98491.97;4988618;28;20088;-74
2021/05/07 01:15:04;;;;;;;4.90;1.60;;;;;;;6.70;68.65;98490.88;5007446;28;20500;-74
2021/05/07 01:17:31;;;;;;;6.13;1.75;;;;;;;6.82;68.26;98491.34;4999766;28;20537;-73
2021/05/07 01:20:09;;;;;;;6.75;2.00;;;;;;;6.93;68.05;98490.19;5008747;28;20042;-74
2021/05/07 01:22:37;;;;;;;6.20;1.80;;;;;;;6.94;68.26;98489.09;5008368;28;20057;-74
2021/05/07 01:25:05;;;;;;;5.78;1.85;;;;;;;6.92;68.25;98498.59;5004061;28;20050;-73
2021/05/07 01:27:35;;;;;;;7.43;2.17;;;;;;;6.78;68.52;98484.84;5003635;28;20531;-74
2021/05/07 01:30:06;;;;;;;5.38;2.00;;;;;;;6.69;68.83;98491.97;5003988;28;20042;-74
2021/05/07 01:32:33;;;;;;;6.85;1.80;;;;;;;6.53;69.42;98494.75;5006884;28;20053;-73
2021/05/07 01:34:59;;;;;;;6.40;2.08;;;;;;;6.56;69.30;98494.22;5005838;28;20465;-75
2021/05/07 01:37:26;;;;;;;5.75;1.77;;;;;;;6.49;69.57;98499.97;5010554;28;20475;-75
2021/05/07 01:39:52;;;;;;;5.82;2.05;;;;;;;6.37;69.80;98486.69;5005954;28;20050;-75
2021/05/07 01:42:18;;;;;;;5.97;1.95;;;;;;;6.44;69.66;98491.03;5002667;28;20061;-72
2021/05/07 01:44:45;;;;;;;7.18;2.17;;;;;;;6.57;69.11;98490.41;5002383;28;20565;-74
2021/05/07 01:47:11;;;;;;;6.07;2.03;;;;;;;6.65;68.64;98494.44;5003914;28;20453;-73
2021/05/07 01:49:37;;;;;;;5.13;1.90;;;;;;;6.76;68.58;98492.47;5006090;28;20402;-74
2021/05/07 01:52:04;;;;;;;5.30;1.90;;;;;;;6.90;68.21;98495.34;5007072;28;20050;-74
2021/05/07 01:54:31;;;;;;;9.43;1.98;;;;;;;6.99;68.10;98507.25;5007569;28;20046;-73
2021/05/07 01:56:57;;;;;;;5.05;1.90;;;;;;;7.08;67.60;98510.97;4991068;28;20058;-74
2021/05/07 01:59:23;;;;;;;6.40;2.40;;;;;;;7.12;67.76;98510.44;5006040;28;20073;-74
2021/05/07 02:01:50;;;;;;;7.95;2.78;;;;;;;7.08;67.93;98518.34;4994540;28;20042;-74
2021/05/07 02:04:16;;;;;;;4.80;2.03;;;;;;;7.06;68.13;98507.75;5000647;28;20057;-74
2021/05/07 02:06:43;;;;;;;5.30;2.08;;;;;;;7.07;68.37;98516.72;5005513;28;20102;-73
2021/05/07 02:09:10;;;;;;;5.95;2.30;;;;;;;7.05;68.55;98513.47;5008990;28;20054;-75
2021/05/07 02:11:37;;;;;;;8.00;2.35;;;;;;;7.05;68.40;98519.72;5000403;28;20572;-73
2021/05/07 02:14:07;;;;;;;5.90;2.35;;;;;;;6.84;68.92;98516.31;4998521;28;20045;-74
2021/05/07 02:16:33;;;;;;;5.95;2.20;;;;;;;6.73;69.33;98523.72;5002194;28;20073;-74
2021/05/07 02:19:03;;;;;;;5.75;2.30;;;;;;;6.83;69.20;98524.75;5001959;28;20137;-73
2021/05/07 02:21:33;;;;;;;7.47;2.30;;;;;;;6.66;69.54;98524.03;4996020;28;20042;-74
2021/05/07 02:23:59;;;;;;;7.38;2.22;;;;;;;6.57;70.06;98524.91;4997347;28;20051;-74
2021/05/07 02:26:25;;;;;;;6.75;2.70;;;;;;;6.54;70.28;98534.41;4966337;28;20058;-74
2021/05/07 02:28:59;;;;;;;9.18;3.00;;;;;;;6.59;70.19;98534.41;4993014;28;20169;-73
2021/05/07 02:31:27;;;;;;;6.53;2.72;;;;;;;6.59;70.28;98536.28;5006548;28;20065;-74
2021/05/07 02:33:53;;;;;;;7.43;2.80;;;;;;;6.55;70.52;98530.59;4976158;28;20038;-73
2021/05/07 02:36:19;;;;;;;9.00;2.55;;;;;;;6.50;70.74;98539.59;5003747;28;20061;-74
2021/05/07 02:38:45;;;;;;;6.95;2.55;;;;;;;6.53;70.56;98546.34;5001949;28;20084;-74
2021/05/07 02:41:11;;;;;;;10.50;3.35;;;;;;;6.52;70.69;98542.84;4999723;28;20073;-74
2021/05/07 02:43:41;;;;;;;7.10;2.72;;;;;;;6.46;70.96;98545.88;4995574;28;20046;-73
2021/05/07 02:46:14;;;;;;;7.15;2.75;;;;;;;6.48;70.87;98547.22;5021769;28;20058;-73
2021/05/07 02:48:41;;;;;;;6.55;2.70;;;;;;;6.56;70.77;98551.25;4980199;28;20045;-71
2021/05/07 02:51:07;;;;;;;7.50;3.25;;;;;;;6.76;70.25;98549.53;5003734;28;20104;-75
2021/05/07 02:53:35;;;;;;;7.38;2.97;;;;;;;6.81;70.08;98554.91;4991120;28;20053;-75
2021/05/07 02:56:01;;;;;;;9.55;4.70;;;;;;;6.92;69.61;98550.22;4997576;28;20051;-74
2021/05/07 02:58:28;;;;;;;;;;;;;;;6.95;69.31;98553.22;5005055;28;20116;-74
2021/05/07 03:00:55;;;;;;;11.43;4.65;;;;;;;7.01;69.39;98564.03;4999562;28;19925;-73
2021/05/07 03:03:21;;;;;;;8.40;2.63;;;;;;;7.03;68.78;98553.72;4999851;28;20049;-74
2021/05/07 03:05:48;;;;;;;8.15;2.90;;;;;;;7.07;68.74;98562.94;4997925;28;20529;-75
2021/05/07 03:08:21;;;;;;;9.55;2.50;;;;;;;7.02;68.53;98562.94;5002870;28;20495;-73
2021/05/07 03:10:47;;;;;;;7.10;2.50;;;;;;;6.94;68.43;98567.06;5003166;28;20060;-73
2021/05/07 03:13:13;;;;;;;8.80;3.15;;;;;;;6.86;68.26;98575.81;5000290;28;20038;-74
2021/05/07 03:15:39;;;;;;;8.50;2.60;;;;;;;6.99;68.27;98574.38;4998967;28;21181;-74
2021/05/07 03:18:05;;;;;;;7.32;2.50;;;;;;;7.05;68.10;98578.72;5003684;28;20046;-74
2021/05/07 03:20:32;;;;;;;8.30;2.55;;;;;;;7.05;67.94;98574.06;5001054;28;20414;-73
2021/05/07 03:22:59;;;;;;;9.40;4.18;;;;;;;6.97;68.00;98569.25;4982658;28;20048;-74
2021/05/07 03:25:24;;;;;;;8.00;2.20;;;;;;;7.04;67.82;98585.25;4998955;28;20054;-73
2021/05/07 03:27:51;;;;;;;7.45;2.33;;;;;;;7.02;68.08;98592.84;5000651;28;20536;-73
2021/05/07 03:30:17;;;;;;;8.05;2.50;;;;;;;7.09;67.66;98599.59;4998714;28;20132;-74
2021/05/07 03:32:43;;;;;;;6.95;2.30;;;;;;;7.01;67.63;98596.66;5004339;28;20050;-72
2021/05/07 03:35:10;;;;;;;7.38;2.10;;;;;;;6.93;68.27;98592.63;5002050;28;20050;-74
2021/05/07 03:37:38;;;;;;;5.53;2.08;;;;;;;6.90;68.30;98604.88;5007049;28;20132;-72
2021/05/07 03:40:06;;;;;;;5.43;2.15;;;;;;;6.93;68.17;98601.59;5000693;28;20572;-73
2021/05/07 03:42:32;;;;;;;5.25;1.92;;;;;;;6.95;67.68;98609.47;5000748;28;20562;-74
2021/05/07 03:44:58;;;;;;;6.32;2.60;;;;;;;6.85;67.94;98607.59;4999181;28;20055;-73
2021/05/07 03:47:24;;;;;;;6.85;1.90;;;;;;;6.98;67.72;98608.09;5004815;28;20513;-76
2021/05/07 03:49:50;;;;;;;5.32;1.90;;;;;;;7.06;67.32;98611.03;5003589;28;20096;-73
2021/05/07 03:52:17;;;;;;;5.72;1.98;;;;;;;7.04;67.68;98613.22;5006031;28;20054;-74
2021/05/07 03:54:45;;;;;;;5.75;2.08;;;;;;;7.12;67.18;98621.88;4997011;28;20426;-74
2021/05/07 03:57:11;;;;;;;6.10;1.75;;;;;;;7.16;67.14;98607.44;4991430;28;20502;-74
2021/05/07 03:59:38;;;;;;;5.55;2.05;;;;;;;7.15;67.26;98613.97;5001176;28;20597;-74
2021/05/07 04:02:04;;;;;;;7.40;2.00;;;;;;;7.16;67.14;98614.78;4999524;28;20044;-75
2021/05/07 04:04:32;;;;;;;10.70;2.20;;;;;;;7.19;66.80;98606.06;4992672;28;20137;-74
2021/05/07 04:06:58;;;;;;;7.55;2.10;;;;;;;7.28;67.00;98611.72;4997350;28;20050;-75
2021/05/07 04:09:33;;;;;;;7.30;2.17;;;;;;;7.30;66.46;98613.06;4989498;28;20046;-73
2021/05/07 04:12:13;;;;;;;7.40;1.90;;;;;;;7.30;66.48;98623.13;5002459;28;20042;-74
2021/05/07 04:14:39;;;;;;;9.07;2.33;;;;;;;7.38;66.16;98615.19;4986095;28;20048;-73
2021/05/07 04:17:05;;;;;;;5.40;2.03;;;;;;;7.37;66.18;98615.47;5005604;28;20062;-74
2021/05/07 04:19:31;;;;;;;7.47;2.00;;;;;;;7.45;65.57;98627.66;5000958;28;20048;-72
2021/05/07 04:21:58;;;;;;;6.07;2.03;;;;;;;7.48;65.50;98633.31;4998897;28;20060;-74
2021/05/07 04:24:24;;;;;;;7.38;2.17;;;;;;;7.49;65.56;98629.53;4982622;28;20078;-74
2021/05/07 04:26:52;;;;;;;9.68;2.30;;;;;;;7.55;65.29;98632.22;4996231;28;20068;-74
2021/05/07 04:29:21;;;;;;;7.15;2.10;;;;;;;7.65;65.38;98630.22;5002466;28;20046;-74
2021/05/07 04:31:50;;;;;;;5.95;2.50;;;;;;;7.76;64.94;98630.94;5005700;28;20469;-73
2021/05/07 04:34:16;;;;;;;7.22;2.30;;;;;;;7.79;64.89;98630.38;5000578;28;20136;-74
2021/05/07 04:36:42;;;;;;;9.93;2.60;;;;;;;7.89;64.17;98639.56;5001625;28;20069;-74
2021/05/07 04:39:08;;;;;;;6.20;2.20;;;;;;;7.93;63.97;98637.88;5000086;28;20073;-75
2021/05/07 04:41:35;;;;;;;5.50;2.20;;;;;;;8.05;63.55;98640.25;5007121;28;20512;-74
2021/05/07 04:44:01;;;;;;;7.68;2.13;;;;;;;8.11;63.39;98646.44;5001264;28;20084;-73
2021/05/07 04:46:29;;;;;;;;;;;;;;;8.12;63.46;98645.34;5000961;28;20105;-73
2021/05/07 04:48:55;;;;;;;10.43;2.42;;;;;;;8.25;63.25;98650.13;5001074;28;19925;-76
2021/05/07 04:51:22;;;;;;;8.07;2.45;;;;;;;8.23;62.80;98652.31;5002327;28;20049;-76
2021/05/07 04:53:48;;;;;;;11.88;2.53;;;;;;;8.30;62.96;98658.25;5006486;28;20133;-73
2021/05/07 04:56:14;;;;;;;6.40;2.28;;;;;;;8.36;62.68;98651.63;5001797;28;20061;-73
2021/05/07 04:58:40;;;;;;;10.20;2.60;;;;;;;8.43;62.18;98656.75;5001557;28;20156;-74
2021/05/07 05:01:06;;;;;;;7.28;2.42;;;;;;;8.49;61.92;98650.13;4999585;28;20050;-73
2021/05/07 05:03:33;;;;;;;9.70;2.40;;;;;;;8.68;61.96;98659.50;5003173;28;20061;-75
2021/05/07 05:05:59;;;;;;;7.07;2.30;;;;;;;8.81;61.37;98653.38;4994408;28;20054;-74
2021/05/07 05:08:25;;;;;;;5.65;2.00;;;;;;;8.98;61.25;98654.78;5001402;28;20110;-74
2021/05/07 05:10:54;;;;;;;6.70;2.28;;;;;;;9.06;60.85;98651.44;5003042;28;20041;-74
2021/05/07 05:13:20;;;;;;;11.13;2.50;;;;;;;9.10;60.76;98651.63;5002374;28;20064;-74
2021/05/07 05:15:48;;;;;;;6.20;2.13;;;;;;;9.11;60.67;98653.25;5002228;28;20050;-74
2021/05/07 05:18:23;;;;;;;8.25;2.33;;;;;;;9.12;60.35;98644.78;4998412;28;20141;-73
2021/05/07 05:20:52;;;;;;;7.00;2.15;;;;;;;9.18;60.04;98657.25;4999971;28;20043;-74
2021/05/07 05:23:18;;;;;;;7.38;2.10;;;;;;;9.05;60.08;98664.25;4999486;28;20506;-73
2021/05/07 05:25:44;;;;;;;8.48;2.03;;;;;;;9.01;60.26;98663.22;5001912;28;20279;-75
2021/05/07 05:28:10;;;;;;;7.45;2.20;;;;;;;8.71;59.34;98665.19;4998394;28;20039;-73
2021/05/07 05:30:36;;;;;;;8.57;2.33;;;;;;;8.82;59.86;98665.88;4999113;28;20038;-74
2021/05/07 05:33:03;;;;;;;8.52;2.45;;;;;;;8.74;60.05;98663.78;4994753;28;20506;-75
2021/05/07 05:35:29;;;;;;;8.40;2.20;;;;;;;8.96;60.08;98665.97;4992116;28;20597;-74
2021/05/07 05:37:57;;;;;;;4.57;1.88;;;;;;;9.17;59.63;98671.19;5000888;28;20137;-75
2021/05/07 05:40:23;;;;;;;7.22;2.28;;;;;;;9.27;59.50;98657.41;4993451;28;20066;-75
2021/05/07 05:42:49;;;;;;;16.80;2.80;;;;;;;9.30;59.57;98667.75;4996184;28;20403;-74
2021/05/07 05:45:16;;;;;;;7.35;2.10;;;;;;;9.34;59.38;98673.41;4984620;28;20046;-73
2021/05/07 05:47:42;;;;;;;5.78;2.08;;;;;;;9.11;59.33;98636.91;4999141;28;20390;-74
2021/05/07 05:50:10;;;;;;;9.38;1.98;;;;;;;9.39;58.92;98664.34;5004342;28;20454;-75
2021/05/07 05:52:36;;;;;;;6.18;1.80;;;;;;;9.35;57.88;98664.13;5005581;28;20046;-75
2021/05/07 05:55:04;;;;;;;12.68;2.10;;;;;;;9.47;57.71;98674.59;5008356;28;20506;-76
2021/05/07 05:57:31;;;;;;;9.75;2.17;;;;;;;9.56;57.62;98666.56;5006120;28;20057;-74
2021/05/07 05:59:57;;;;;;;4.72;1.83;;;;;;;9.49;57.79;98658.75;5004699;28;20054;-74
2021/05/07 06:02:23;;;;;;;4.85;1.83;;;;;;;9.54;57.98;98672.31;5007721;28;20108;-74
2021/05/07 06:04:49;;;;;;;12.43;2.20;;;;;;;9.50;57.33;98666.63;4996409;28;20530;-74
2021/05/07 06:07:15;;;;;;;6.05;1.90;;;;;;;9.36;57.36;98654.81;4995471;28;20054;-75
2021/05/07 06:09:41;;;;;;;7.55;2.03;;;;;;;9.39;57.60;98658.88;5002098;28;20056;-74
2021/05/07 06:12:09;;;;;;;9.25;2.15;;;;;;;9.45;56.93;98663.19;5007545;28;20056;-75
2021/05/07 06:14:35;;;;;;;6.10;2.50;;;;;;;9.60;56.76;98659.41;4997145;28;20120;-73
2021/05/07 06:17:01;;;;;;;7.28;2.25;;;;;;;9.67;56.40;98670.75;5013804;28;20137;-73
2021/05/07 06:19:27;;;;;;;8.63;2.33;;;;;;;9.77;56.54;98670.59;4993406;28;20145;-74
2021/05/07 06:21:54;;;;;;;9.45;2.22;;;;;;;9.93;56.05;98673.91;5015671;28;20052;-75
2021/05/07 06:24:31;;;;;;;9.68;1.83;;;;;;;10.04;55.25;98663.63;4999163;28;20062;-72
2021/05/07 06:26:58;;;;;;;10.57;2.20;;;;;;;10.24;55.03;98671.75;4999772;28;20455;-75
2021/05/07 06:29:28;;;;;;;12.80;1.83;;;;;;;10.24;54.74;98674.50;4989286;28;20077;-76
2021/05/07 06:31:54;;;;;;;10.35;2.33;;;;;;;10.24;54.00;98680.75;5006075;28;20052;-74
2021/05/07 06:34:20;;;;;;;6.32;1.83;;;;;;;10.42;53.49;98684.56;5011436;28;20060;-74
2021/05/07 06:36:46;;;;;;;8.93;1.90;;;;;;;10.44;53.86;98676.88;4992314;28;20139;-74
2021/05/07 06:39:12;;;;;;;12.93;2.28;;;;;;;10.41;53.57;98673.94;5006657;28;20104;-75
2021/05/07 06:41:39;;;;;;;9.05;2.10;;;;;;;10.43;51.12;98677.19;4989673;28;20490;-73
2021/05/07 06:44:06;;;;;;;7.50;1.80;;;;;;;10.19;48.95;98691.78;4987999;28;20137;-73
2021/05/07 06:46:33;;;;;;;7.07;2.03;;;;;;;10.28;49.16;98689.97;5006444;28;20492;-74
2021/05/07 06:48:59;;;;;;;9.63;2.10;;;;;;;10.16;49.63;98695.13;5005707;28;20042;-74
2021/05/07 06:51:27;;;;;;;12.68;2.45;;;;;;;10.00;49.44;98694.53;5009580;28;20076;-78
2021/05/07 06:53:53;;;;;;;9.95;1.83;;;;;;;10.23;49.05;98687.34;5007638;28;20052;-75
2021/05/07 06:56:22;;;;;;;7.60;2.00;;;;;;;10.43;49.08;98688.94;5007208;28;20117;-76
2021/05/07 06:58:48;;;;;;;8.93;1.98;;;;;;;10.49;49.18;98684.19;5011261;28;20038;-75
2021/05/07 07:01:14;;;;;;;7.70;1.77;;;;;;;10.61;49.25;98703.66;5010272;28;20046;-74
2021/05/07 07:03:41;;;;;;;3.92;1.45;;;;;;;10.54;48.06;98705.94;5009124;28;20049;-75
2021/05/07 07:06:08;;;;;;;11.18;2.05;;;;;;;10.43;48.18;98701.78;5009486;28;20046;-74
2021/05/07 07:08:34;;;;;;;6.00;1.77;;;;;;;10.29;48.11;98702.50;4994730;28;20137;-76
2021/05/07 07:11:00;;;;;;;5.28;1.70;;;;;;;10.30;47.21;98698.69;5002183;28;20360;-75
2021/05/07 07:13:27;;;;;;;6.65;1.73;;;;;;;10.28;47.34;98706.34;4994302;28;20056;-74
2021/05/07 07:15:53;;;;;;;7.43;2.00;;;;;;;10.10;48.23;98713.50;5007712;28;20474;-76
2021/05/07 07:18:20;;;;;;;5.30;2.10;;;;;;;10.15;48.24;98715.34;5007693;28;20134;-70
2021/05/07 07:20:48;;;;;;;7.97;2.00;;;;;;;10.49;47.05;98715.03;5008860;28;20556;-70
2021/05/07 07:23:15;;;;;;;9.02;1.70;;;;;;;10.73;46.70;98713.25;5005876;28;20056;-73
2021/05/07 07:25:43;;;;;;;6.65;2.05;;;;;;;11.10;46.80;98714.19;5002165;28;20050;-72
2021/05/07 07:28:10;;;;;;;11.77;1.70;;;;;;;11.14;47.30;98722.56;5013582;28;20137;-73
2021/05/07 07:30:36;;;;;;;;;;;;;;;11.14;48.00;98720.66;5009100;28;20062;-72
2021/05/07 07:33:03;;;;;;;6.22;1.70;;;;;;;11.06;46.53;98724.09;4996889;28;19925;-73
2021/05/07 07:35:29;;;;;;;6.93;1.50;;;;;;;10.95;45.05;98726.22;5005383;28;20074;-71
2021/05/07 07:37:56;;;;;;;5.25;1.63;;;;;;;10.51;46.01;98722.94;5006167;28;20429;-71
2021/05/07 07:40:22;;;;;;;7.95;1.80;;;;;;;10.85;45.43;98724.50;5003939;28;20092;-72
2021/05/07 07:42:48;;;;;;;5.57;1.50;;;;;;;11.35;45.30;98736.66;5002631;28;20062;-74
2021/05/07 07:45:15;;;;;;;7.75;1.60;;;;;;;11.54;43.98;98725.56;5004307;28;20113;-72
2021/05/07 07:47:41;;;;;;;4.13;1.40;;;;;;;11.39;43.68;98729.44;5003544;28;20069;-74
2021/05/07 07:50:08;;;;;;;7.47;1.48;;;;;;;11.52;44.50;98732.47;5003742;28;20132;-75
2021/05/07 07:52:36;;;;;;;7.65;1.60;;;;;;;11.75;44.33;98736.06;5006035;28;20042;-72
2021/05/07 07:55:04;;;;;;;6.53;1.75;;;;;;;11.46;43.86;98718.91;4994340;28;20054;-75
2021/05/07 07:57:30;;;;;;;8.10;1.50;;;;;;;11.21;43.02;98732.00;5006554;28;20065;-74
2021/05/07 07:59:57;;;;;;;4.18;1.35;;;;;;;11.23;43.33;98737.19;5000922;28;20049;-73
2021/05/07 08:02:25;;;;;;;8.32;1.65;;;;;;;11.61;43.20;98738.84;5003302;28;20217;-72
2021/05/07 08:04:51;;;;;;;9.23;1.63;;;;;;;11.90;43.16;98726.69;5010125;28;20403;-70
2021/05/07 08:07:18;;;;;;;15.30;1.77;;;;;;;12.22;43.02;98729.53;4999283;28;20060;-70
2021/05/07 08:09:44;;;;;;;8.20;1.70;;;;;;;12.44;43.14;98734.19;4996691;28;20527;-72
2021/05/07 08:12:12;;;;;;;7.45;1.65;;;;;;;12.53;42.89;98726.00;5001346;28;20046;-73
2021/05/07 08:14:39;;;;;;;8.40;1.48;;;;;;;12.80;42.48;98732.44;4993600;28;20530;-72
2021/05/07 08:17:08;;;;;;;11.68;1.85;;;;;;;13.04;41.38;98735.63;5001284;28;20141;-72
2021/05/07 08:19:34;;;;;;;3.95;1.23;;;;;;;12.80;41.05;98730.53;5008232;28;20061;-75
2021/05/07 08:22:01;;;;;;;6.43;1.40;;;;;;;13.07;40.74;98734.16;4999754;28;20048;-73
2021/05/07 08:24:27;;;;;;;11.27;1.50;;;;;;;12.97;41.10;98737.22;5000779;28;20136;-72
2021/05/07 08:26:53;;;;;;;6.47;1.50;;;;;;;12.85;41.01;98732.28;4998505;28;20053;-73
2021/05/07 08:29:21;;;;;;;10.77;2.33;;;;;;;12.86;41.40;98728.44;4997095;28;20054;-72
2021/05/07 08:31:47;;;;;;;6.35;1.20;;;;;;;13.00;41.02;98729.13;5004456;28;20054;-71
2021/05/07 08:34:15;;;;;;;8.55;1.33;;;;;;;13.03;41.28;98739.50;5002875;28;20052;-71
2021/05/07 08:36:41;;;;;;;3.40;1.38;;;;;;;13.12;41.00;98735.97;5009436;28;20060;-72
2021/05/07 08:39:07;;;;;;;9.48;1.45;;;;;;;13.02;41.03;98743.34;5001192;28;20136;-72
2021/05/07 08:41:33;;;;;;;10.48;1.70;;;;;;;12.75;41.49;98719.66;5004997;28;20045;-71
2021/05/07 08:43:59;;;;;;;14.60;1.70;;;;;;;12.86;41.16;98729.25;5005597;28;20065;-73
2021/05/07 08:46:27;;;;;;;15.15;1.60;;;;;;;12.63;41.06;98726.53;5000899;28;20054;-75
2021/05/07 08:48:53;;;;;;;9.35;1.65;;;;;;;12.58;41.55;98731.38;5003332;28;20046;-74
2021/05/07 08:51:19;;;;;;;7.10;1.87;;;;;;;12.49;41.29;98745.03;5003418;28;20123;-72
2021/05/07 08:53:45;;;;;;;17.98;1.70;;;;;;;12.92;40.90;98740.91;5006949;28;20812;-70
2021/05/07 08:56:11;;;;;;;7.47;1.67;;;;;;;13.01;40.88;98738.97;4993854;28;20100;-71
2021/05/07 08:58:38;;;;;;;4.10;1.17;;;;;;;12.86;41.28;98729.25;4991789;28;20054;-72
2021/05/07 09:01:04;;;;;;;9.52;1.60;;;;;;;12.90;40.92;98735.72;4999801;28;20046;-73
2021/05/07 09:03:39;;;;;;;8.90;1.67;;;;;;;13.10;40.01;98739.00;5001243;28;20073;-72
2021/05/07 09:06:14;;;;;;;8.80;1.60;;;;;;;13.56;39.60;98741.56;4996595;28;20042;-71
2021/05/07 09:08:40;;;;;;;5.55;1.27;;;;;;;13.90;39.06;98737.28;5010086;28;20523;-71
2021/05/07 09:11:06;;;;;;;9.40;1.60;;;;;;;13.97;38.89;98743.06;4994977;28;20066;-72
2021/05/07 09:13:32;;;;;;;6.63;1.30;;;;;;;13.83;38.85;98731.44;5005150;28;20173;-72
2021/05/07 09:16:04;;;;;;;4.68;1.40;;;;;;;13.73;38.65;98724.31;4999311;28;20072;-73
2021/05/07 09:18:41;;;;;;;6.10;1.30;;;;;;;13.67;38.53;98734.66;5001103;28;20049;-72
2021/05/07 09:21:08;;;;;;;3.83;1.20;;;;;;;13.81;38.27;98714.47;4999626;28;20057;-69
2021/05/07 09:23:38;;;;;;;3.80;1.15;;;;;;;13.86;38.22;98719.78;4994925;28;20046;-71
2021/05/07 09:26:05;;;;;;;6.28;1.35;;;;;;;13.93;37.30;98725.63;4994661;28;20089;-71
2021/05/07 09:28:31;;;;;;;10.27;1.30;;;;;;;13.96;35.84;98733.22;4996191;28;20049;-70
2021/05/07 09:31:10;;;;;;;4.90;1.20;;;;;;;13.79;35.12;98738.72;4994788;28;20554;-70
2021/05/07 09:33:40;;;;;;;6.15;1.20;;;;;;;13.51;35.73;98736.25;5005624;28;20045;-71
2021/05/07 09:36:07;;;;;;;7.72;1.20;;;;;;;13.61;36.19;98744.97;5006620;28;20076;-71
2021/05/07 09:38:34;;;;;;;3.10;1.10;;;;;;;13.65;36.61;98728.69;4999509;28;20542;-70
2021/05/07 09:41:00;;;;;;;4.25;1.42;;;;;;;13.94;37.04;98740.97;4997457;28;20391;-71
2021/05/07 09:43:29;;;;;;;5.38;1.23;;;;;;;13.97;37.46;98734.84;5008433;28;20521;-72
2021/05/07 09:45:56;;;;;;;4.60;1.80;;;;;;;13.96;36.82;98737.88;5005219;28;20046;-73
2021/05/07 09:48:24;;;;;;;4.95;1.50;;;;;;;13.90;36.62;98727.06;5004802;28;20506;-72
2021/05/07 09:50:55;;;;;;;3.72;1.30;;;;;;;14.02;36.09;98731.91;5007355;28;20046;-71
2021/05/07 09:53:24;;;;;;;2.00;1.00;;;;;;;14.00;35.29;98739.69;5004008;28;20107;-71
2021/05/07 09:55:53;;;;;;;3.35;1.23;;;;;;;14.18;34.95;98745.16;4993584;28;20549;-71
2021/05/07 09:58:19;;;;;;;4.97;1.40;;;;;;;14.30;34.51;98741.78;5005314;28;20061;-72
2021/05/07 10:00:46;;;;;;;5.13;1.40;;;;;;;14.41;34.31;98734.78;5004274;28;20042;-71
2021/05/07 10:03:12;;;;;;;2.78;1.13;;;;;;;14.56;34.28;98743.66;5003245;28;20088;-71
2021/05/07 10:05:38;;;;;;;3.30;1.15;;;;;;;14.42;34.25;98749.34;5012804;28;20049;-70
2021/05/07 10:08:04;;;;;;;4.68;1.23;;;;;;;14.43;34.37;98751.75;4997069;28;20503;-75
2021/05/07 10:10:36;;;;;;;29.60;3.03;;;;;;;14.27;34.87;98753.41;4987183;28;20081;-75
2021/05/07 10:13:04;;;;;;;6.22;1.58;;;;;;;14.44;35.31;98747.91;4987323;28;20042;-76
2021/05/07 10:15:33;;;;;;;3.15;1.25;;;;;;;14.68;35.15;98752.03;5007332;28;20506;-77
2021/05/07 10:17:59;;;;;;;3.58;1.30;;;;;;;14.63;35.22;98732.97;4997464;28;20050;-74
2021/05/07 10:20:27;;;;;;;11.90;1.20;;;;;;;14.26;34.84;98754.53;4996621;28;20046;-76
2021/05/07 10:22:54;;;;;;;2.13;0.95;;;;;;;12.93;35.66;98756.22;5008748;28;20463;-75
2021/05/07 10:25:22;;;;;;;3.85;1.30;;;;;;;12.84;36.20;98752.63;5000699;28;20062;-76
2021/05/07 10:27:52;;;;;;;2.60;1.10;;;;;;;13.17;35.72;98746.78;5002544;28;20424;-73
2021/05/07 10:30:26;;;;;;;7.70;2.10;;;;;;;13.01;35.98;98751.91;5012508;28;20482;-76
2021/05/07 10:32:58;;;;;;;2.83;1.38;;;;;;;13.71;34.70;98760.34;5004340;28;20061;-70
2021/05/07 10:35:35;;;;;;;4.65;1.20;;;;;;;14.10;33.50;98738.53;4998913;28;20141;-75
2021/05/07 10:38:16;;;;;;;7.22;1.50;;;;;;;14.39;33.39;98756.31;5010624;28;20092;-75
2021/05/07 10:40:43;;;;;;;5.80;1.40;;;;;;;14.65;33.29;98754.63;5007399;28;20047;-74
2021/05/07 10:43:12;;;;;;;6.13;1.30;;;;;;;14.65;32.51;98727.94;5010383;28;20042;-77
2021/05/07 10:45:46;;;;;;;5.60;1.50;;;;;;;14.92;32.42;98749.88;5006445;28;20050;-75
2021/05/07 10:48:24;;;;;;;4.88;1.35;;;;;;;15.09;31.98;98746.28;5006445;28;20120;-75
2021/05/07 10:50:52;;;;;;;6.03;1.50;;;;;;;15.20;31.66;98754.97;5000791;28;20517;-75
2021/05/07 10:53:36;;;;;;;3.78;1.55;;;;;;;15.14;32.14;98752.41;5001666;28;20049;-77
2021/05/07 10:56:14;;;;;;;7.80;1.67;;;;;;;14.97;32.84;98756.03;4995429;28;20046;-75
2021/05/07 10:58:41;;;;;;;4.20;1.70;;;;;;;15.05;32.63;98734.28;4998551;28;20046;-76
2021/05/07 11:01:17;;;;;;;;;;;;;;;15.10;33.73;98756.94;4996989;28;20507;-73
2021/05/07 11:03:43;;;;;;;10.77;1.80;;;;;;;15.09;32.98;98760.81;5004171;28;19931;-72
2021/05/07 11:06:10;;;;;;;4.70;1.60;;;;;;;15.20;32.91;98758.50;5001135;28;20136;-75
2021/05/07 11:08:36;;;;;;;15.90;2.10;;;;;;;15.20;33.00;98754.97;5007662;28;20046;-76
2021/05/07 11:11:02;;;;;;;7.15;1.30;;;;;;;15.17;32.94;98753.66;5001360;28;20034;-74
2021/05/07 11:13:29;;;;;;;9.67;2.00;;;;;;;15.04;33.24;98761.00;4982255;28;20462;-75
2021/05/07 11:15:57;;;;;;;5.38;1.50;;;;;;;14.87;33.09;98750.88;5001047;28;20046;-77
2021/05/07 11:18:28;;;;;;;3.65;1.33;;;;;;;15.07;32.82;98756.81;5006231;28;20054;-77
2021/05/07 11:20:54;;;;;;;8.25;1.92;;;;;;;15.22;33.00;98760.94;4995722;28;20125;-72
2021/05/07 11:23:20;;;;;;;4.55;1.67;;;;;;;15.09;33.01;98755.31;5002200;28;20068;-74
2021/05/07 11:25:46;;;;;;;7.65;1.77;;;;;;;15.15;33.25;98754.00;5014338;28;20422;-75
2021/05/07 11:28:16;;;;;;;8.82;1.65;;;;;;;15.22;31.89;98761.75;4998914;28;20046;-74
2021/05/07 11:30:47;;;;;;;12.27;1.90;;;;;;;14.63;32.31;98752.22;5003215;28;20128;-71
2021/05/07 11:33:14;;;;;;;11.05;2.00;;;;;;;14.94;32.60;98756.69;5004942;28;20366;-73
2021/05/07 11:35:41;;;;;;;8.00;1.60;;;;;;;14.85;32.48;98744.88;4999424;28;20054;-72
2021/05/07 11:38:07;;;;;;;9.25;2.05;;;;;;;14.59;32.82;98741.06;4995970;28;20432;-73
2021/05/07 11:40:37;;;;;;;10.30;2.17;;;;;;;14.55;32.95;98755.78;5001513;28;20041;-73